GHST09 ESMT-ESSV

Flight info

Callsign GHST09
Flight time N/A
Altitude 12000
Route LABAN MIKNA VSB
Aircraft SB39/M-V/N

Departure

Time 2026-04-18 12:30
Airport Halmstad Airport (ESMT)

Arrival

Time N/A
Airport Visby Airport (ESSV)
Time Latitude Longitude Altitude Speed Heading
2026-04-18 12:05 56.68681 12.82641 91 ft 0 kts 187°
2026-04-18 12:20 56.68671 12.82635 90 ft 1 kts 223°
2026-04-18 12:20 56.68670 12.82631 93 ft 0 kts 257°
2026-04-18 12:23 56.68668 12.82607 92 ft 0 kts 266°
2026-04-18 12:24 56.68659 12.82554 89 ft 4 kts 195°
2026-04-18 12:24 56.68654 12.82552 91 ft 1 kts 179°
2026-04-18 12:24 56.68623 12.82564 88 ft 8 kts 167°
2026-04-18 12:25 56.68548 12.82608 89 ft 15 kts 165°
2026-04-18 12:25 56.68431 12.82672 91 ft 20 kts 163°
2026-04-18 12:25 56.68367 12.82707 92 ft 0 kts 161°
2026-04-18 12:27 56.68363 12.82709 92 ft 4 kts 164°
2026-04-18 12:27 56.68319 12.82669 89 ft 13 kts 229°
2026-04-18 12:27 56.68239 12.82484 84 ft 24 kts 230°
2026-04-18 12:27 56.68182 12.82358 76 ft 0 kts 229°
2026-04-18 12:28 56.68182 12.82357 76 ft 2 kts 230°
2026-04-18 12:28 56.68149 12.82283 74 ft 13 kts 228°
2026-04-18 12:28 56.68076 12.82113 68 ft 22 kts 242°
2026-04-18 12:29 56.68077 12.81864 67 ft 16 kts 311°
2026-04-18 12:29 56.68201 12.81823 70 ft 24 kts
2026-04-18 12:29 56.68370 12.81856 74 ft 0 kts
2026-04-18 12:30 56.68798 12.81966 80 ft 204 kts 11°
2026-04-18 12:30 56.70945 12.82455 1256 ft 373 kts 13°
2026-04-18 12:30 56.72848 12.83051 2289 ft 424 kts 15°
2026-04-18 12:31 56.73763 12.83382 2774 ft 442 kts 17°
2026-04-18 12:31 56.76913 12.84670 4468 ft 481 kts 19°
2026-04-18 12:32 56.80278 12.86288 5113 ft 522 kts 15°
2026-04-18 12:32 56.83696 12.89511 3077 ft 587 kts 55°
2026-04-18 12:32 56.85545 12.96084 2853 ft 589 kts 85°
2026-04-18 12:32 56.83065 12.99819 1785 ft 567 kts 180°
2026-04-18 12:33 56.78986 12.99709 690 ft 589 kts 198°
2026-04-18 12:33 56.75503 12.96430 2797 ft 512 kts 219°
2026-04-18 12:33 56.75684 12.91986 1534 ft 426 kts 335°
2026-04-18 12:33 56.78170 12.93005 1105 ft 397 kts 68°
2026-04-18 12:34 56.79421 12.99677 908 ft 673 kts 84°
2026-04-18 12:34 56.78379 13.06340 2591 ft 519 kts 144°
2026-04-18 12:34 56.75475 13.04798 2880 ft 456 kts 225°
2026-04-18 12:34 56.72866 12.99521 3449 ft 604 kts 238°
2026-04-18 12:35 56.70568 12.93710 3671 ft 533 kts 238°
2026-04-18 12:35 56.68511 12.88527 3969 ft 493 kts 239°
2026-04-18 12:35 56.66630 12.83465 4125 ft 473 kts 237°
2026-04-18 12:35 56.64163 12.79629 2405 ft 483 kts 216°
2026-04-18 12:36 56.62842 12.74913 1618 ft 350 kts 296°
2026-04-18 12:36 56.63777 12.72257 2343 ft 165 kts 29°
2026-04-18 12:36 56.64433 12.73805 2148 ft 243 kts 80°
2026-04-18 12:36 56.64803 12.77204 1845 ft 252 kts 85°
2026-04-18 12:37 56.65221 12.79628 1398 ft 166 kts 64°
2026-04-18 12:37 56.65952 12.80883 1124 ft 133 kts 33°
2026-04-18 12:37 56.66862 12.81441 616 ft 146 kts 16°
2026-04-18 12:37 56.67874 12.81765 186 ft 143 kts
2026-04-18 12:38 56.68760 12.81957 80 ft 110 kts
2026-04-18 12:38 56.69180 12.82042 77 ft 64 kts 334°